Time;durP1;ratioP1;P1;durP2;ratioP2;P2;SDS_P1;SDS_P2;PMS_P1;PMS_P2;Temp;Humidity;BMP_temperature;BMP_pressure;BME280_temperature;BME280_humidity;BME280_pressure;Samples;Min_cycle;Max_cycle;Signal;HPM_P1;HPM_P2
2021/10/12 00:00:27;;;;;;;5.70;4.20;;;11.30;46.20;;;;;;5100281;28;20182;-57
2021/10/12 00:02:52;;;;;;;6.17;4.87;;;11.20;49.80;;;;;;5093507;28;20187;-55
2021/10/12 00:05:18;;;;;;;5.17;4.33;;;11.30;54.50;;;;;;5102117;28;20199;-55
2021/10/12 00:07:46;;;;;;;7.00;4.40;;;11.30;49.60;;;;;;5100087;28;20194;-54
2021/10/12 00:10:12;;;;;;;5.33;4.33;;;11.30;51.30;;;;;;5106903;28;20267;-54
2021/10/12 00:12:37;;;;;;;5.33;3.80;;;11.40;43.00;;;;;;5109519;28;20440;-54
2021/10/12 00:15:04;;;;;;;7.80;5.10;;;11.40;40.80;;;;;;5097649;28;20989;-55
2021/10/12 00:17:30;;;;;;;6.93;5.20;;;11.30;43.40;;;;;;5098325;28;20235;-54
2021/10/12 00:19:55;;;;;;;7.37;4.93;;;11.30;43.70;;;;;;5095626;28;20457;-55
2021/10/12 00:22:21;;;;;;;9.10;5.00;;;11.40;38.90;;;;;;5105793;28;20182;-55
2021/10/12 00:24:46;;;;;;;5.93;4.40;;;11.40;39.50;;;;;;5101975;28;20207;-53
2021/10/12 00:27:12;;;;;;;12.57;6.13;;;11.40;35.90;;;;;;5103924;28;20186;-54
2021/10/12 00:29:37;;;;;;;8.53;4.90;;;11.20;42.40;;;;;;5106240;28;20182;-55
2021/10/12 00:32:03;;;;;;;5.40;4.60;;;11.30;40.80;;;;;;5104096;28;20251;-57
2021/10/12 00:34:29;;;;;;;10.70;5.60;;;11.30;42.60;;;;;;5086261;28;20190;-54
2021/10/12 00:36:54;;;;;;;4.70;3.90;;;11.20;39.80;;;;;;5101165;28;20571;-55
2021/10/12 00:39:20;;;;;;;8.10;5.13;;;11.20;45.50;;;;;;5096711;28;20190;-54
2021/10/12 00:41:45;;;;;;;13.33;5.57;;;11.30;41.00;;;;;;5101661;28;20581;-55
2021/10/12 00:44:11;;;;;;;11.23;6.27;;;11.20;40.70;;;;;;5105307;28;20710;-57
2021/10/12 00:46:37;;;;;;;8.60;5.43;;;11.20;38.80;;;;;;5098969;28;20643;-54
2021/10/12 00:49:03;;;;;;;10.10;6.80;;;11.10;45.80;;;;;;5100341;28;20216;-56
2021/10/12 00:51:29;;;;;;;10.70;6.00;;;11.20;44.20;;;;;;5099654;28;20517;-54
2021/10/12 00:53:55;;;;;;;8.90;7.20;;;11.10;42.00;;;;;;5100685;28;20447;-54
2021/10/12 00:56:22;;;;;;;11.53;6.13;;;11.20;40.00;;;;;;5096940;28;20194;-55
2021/10/12 00:58:48;;;;;;;8.47;6.13;;;11.20;39.60;;;;;;5100916;28;20196;-53
2021/10/12 01:01:14;;;;;;;8.63;6.60;;;11.20;39.80;;;;;;5098228;28;21030;-56
2021/10/12 01:03:40;;;;;;;8.23;6.57;;;11.20;37.30;;;;;;5103593;28;20429;-55
2021/10/12 01:06:06;;;;;;;12.40;6.20;;;11.20;37.20;;;;;;5100240;28;20212;-56
2021/10/12 01:08:32;;;;;;;9.40;6.20;;;11.20;37.50;;;;;;5080034;28;20187;-56
2021/10/12 01:10:58;;;;;;;14.47;6.80;;;11.20;34.40;;;;;;5101313;28;20850;-55
2021/10/12 01:13:24;;;;;;;9.87;7.13;;;11.20;30.00;;;;;;5107703;28;20190;-55
2021/10/12 01:15:51;;;;;;;13.43;7.70;;;11.20;30.00;;;;;;5101787;28;20441;-56
2021/10/12 01:18:17;;;;;;;14.77;7.40;;;11.00;33.30;;;;;;5096631;28;20453;-54
2021/10/12 01:20:44;;;;;;;8.20;7.17;;;11.00;29.90;;;;;;5095247;28;21133;-54
2021/10/12 01:23:11;;;;;;;10.63;6.00;;;11.00;29.90;;;;;;5107947;28;20187;-56
2021/10/12 01:25:36;;;;;;;13.20;6.93;;;10.80;36.50;;;;;;5105366;28;20490;-55
2021/10/12 01:28:04;;;;;;;12.27;7.47;;;10.80;36.20;;;;;;5095641;28;20445;-56
2021/10/12 01:30:29;;;;;;;10.67;7.67;;;10.90;34.20;;;;;;5097954;28;20179;-54
2021/10/12 01:32:55;;;;;;;10.73;7.57;;;10.90;27.20;;;;;;5105142;28;20443;-54
2021/10/12 01:35:21;;;;;;;13.83;6.20;;;10.80;31.00;;;;;;5105421;28;20183;-56
2021/10/12 01:37:46;;;;;;;13.37;7.50;;;10.70;38.10;;;;;;5104716;28;20330;-54
2021/10/12 01:40:13;;;;;;;10.83;6.87;;;10.60;40.30;;;;;;5079755;28;20175;-54
2021/10/12 01:42:39;;;;;;;14.07;7.97;;;10.50;49.20;;;;;;5102988;28;20199;-55
2021/10/12 01:45:07;;;;;;;12.17;7.00;;;10.60;46.70;;;;;;5102836;28;20902;-53
2021/10/12 01:47:33;;;;;;;12.77;7.50;;;10.50;49.50;;;;;;5101659;28;20443;-54
2021/10/12 01:49:59;;;;;;;12.13;7.67;;;10.40;55.10;;;;;;5098649;28;20445;-54
2021/10/12 01:52:25;;;;;;;11.43;6.63;;;10.40;55.70;;;;;;5104931;28;20217;-55
2021/10/12 01:54:50;;;;;;;10.60;7.17;;;10.40;58.40;;;;;;5108695;28;20537;-56
2021/10/12 01:57:18;;;;;;;12.83;7.60;;;10.40;61.10;;;;;;5099960;28;20452;-54
2021/10/12 01:59:44;;;;;;;10.37;7.03;;;10.30;68.30;;;;;;5108546;28;20631;-54
2021/10/12 02:02:10;;;;;;;12.47;7.60;;;10.30;64.50;;;;;;5110685;28;20917;-55
2021/10/12 02:04:36;;;;;;;9.30;7.00;;;10.30;82.00;;;;;;5109869;28;20478;-55
2021/10/12 02:07:02;;;;;;;17.30;7.60;;;10.30;74.30;;;;;;5100475;28;20515;-55
2021/10/12 02:09:30;;;;;;;12.90;7.70;;;10.30;73.60;;;;;;5098539;28;20195;-55
2021/10/12 02:11:55;;;;;;;11.73;7.47;;;10.30;70.40;;;;;;5100407;28;20481;-55
2021/10/12 02:14:21;;;;;;;7.53;6.47;;;10.30;68.40;;;;;;5098326;28;21624;-54
2021/10/12 02:16:47;;;;;;;19.10;7.33;;;10.30;67.60;;;;;;5100209;28;20295;-54
2021/10/12 02:19:12;;;;;;;12.90;7.17;;;10.30;69.80;;;;;;5099432;28;20182;-56
2021/10/12 02:21:38;;;;;;;12.90;7.13;;;10.20;74.60;;;;;;5098550;28;20467;-55
2021/10/12 02:24:04;;;;;;;12.67;7.00;;;10.20;71.60;;;;;;5084214;28;20186;-55
2021/10/12 02:26:30;;;;;;;13.73;7.47;;;10.20;71.90;;;;;;5099759;28;20201;-55
2021/10/12 02:28:55;;;;;;;8.97;6.40;;;10.20;74.30;;;;;;5100880;28;20995;-55
2021/10/12 02:31:21;;;;;;;12.10;7.00;;;10.20;74.90;;;;;;5109664;28;20187;-55
2021/10/12 02:33:46;;;;;;;10.70;7.07;;;10.20;76.20;;;;;;5105195;28;20222;-56
2021/10/12 02:36:12;;;;;;;8.70;5.90;;;10.20;72.80;;;;;;5093361;28;20194;-55
2021/10/12 02:38:39;;;;;;;13.73;6.70;;;10.20;72.90;;;;;;5098586;28;20205;-57
2021/10/12 02:41:04;;;;;;;14.53;6.73;;;10.10;69.80;;;;;;5097557;28;20667;-54
2021/10/12 02:43:30;;;;;;;10.10;6.57;;;10.10;74.60;;;;;;5101446;28;20445;-55
2021/10/12 02:45:56;;;;;;;13.60;7.00;;;9.90;76.20;;;;;;5105507;28;20214;-56
2021/10/12 02:48:21;;;;;;;13.73;6.70;;;9.90;96.00;;;;;;5104525;28;20187;-55
2021/10/12 02:50:47;;;;;;;11.20;6.63;;;9.90;99.50;;;;;;5103502;28;20276;-54
2021/10/12 02:53:14;;;;;;;12.17;6.70;;;9.90;99.90;;;;;;5098807;28;20278;-55
2021/10/12 02:55:39;;;;;;;10.20;6.10;;;10.00;99.90;;;;;;5098574;28;20287;-55
2021/10/12 02:58:06;;;;;;;14.50;6.93;;;10.10;99.90;;;;;;5100455;28;21019;-54
2021/10/12 03:00:34;;;;;;;17.27;7.03;;;10.10;99.40;;;;;;5104566;28;20179;-55
2021/10/12 03:03:00;;;;;;;11.23;6.70;;;10.10;99.90;;;;;;5098610;28;20494;-56
2021/10/12 03:05:26;;;;;;;12.27;6.77;;;10.10;99.90;;;;;;5098722;28;20476;-55
2021/10/12 03:07:51;;;;;;;11.80;6.73;;;10.20;98.00;;;;;;5099017;28;20190;-56
2021/10/12 03:10:17;;;;;;;16.53;6.47;;;10.30;93.80;;;;;;5097152;28;20441;-55
2021/10/12 03:12:43;;;;;;;10.33;6.77;;;10.30;93.00;;;;;;5104716;28;20582;-54
2021/10/12 03:15:09;;;;;;;10.07;6.07;;;10.40;92.70;;;;;;5098474;28;20183;-55
2021/10/12 03:17:34;;;;;;;14.07;6.90;;;10.40;87.80;;;;;;5076539;28;20387;-54
2021/10/12 03:20:00;;;;;;;11.03;6.90;;;10.40;83.00;;;;;;5110071;28;20511;-55
2021/10/12 03:22:26;;;;;;;13.27;6.33;;;10.50;66.00;;;;;;5108011;28;20189;-57
2021/10/12 03:24:51;;;;;;;14.77;7.00;;;10.40;53.80;;;;;;5099139;28;20287;-55
2021/10/12 03:27:17;;;;;;;14.87;6.73;;;10.40;48.10;;;;;;5098461;28;20455;-54
2021/10/12 03:29:43;;;;;;;13.13;8.40;;;10.40;48.10;;;;;;5106904;28;20447;-54
2021/10/12 03:32:09;;;;;;;13.10;7.53;;;10.30;49.70;;;;;;5099351;28;20587;-54
2021/10/12 03:34:35;;;;;;;13.10;7.33;;;10.20;55.30;;;;;;5098565;28;20708;-54
2021/10/12 03:37:01;;;;;;;10.57;6.80;;;10.00;55.90;;;;;;5109314;28;20440;-54
2021/10/12 03:39:27;;;;;;;11.47;7.17;;;10.00;62.80;;;;;;5084390;28;20522;-54
2021/10/12 03:41:53;;;;;;;12.73;7.60;;;9.90;64.40;;;;;;5099317;28;20957;-56
2021/10/12 03:44:20;;;;;;;11.90;8.37;;;9.80;77.40;;;;;;5101864;28;20485;-56
2021/10/12 03:46:46;;;;;;;15.10;7.53;;;9.70;83.40;;;;;;5095885;28;20459;-56
2021/10/12 03:49:12;;;;;;;14.40;8.13;;;9.60;93.60;;;;;;5101195;28;20440;-55
2021/10/12 03:51:40;;;;;;;11.23;7.80;;;9.80;94.90;;;;;;5101457;28;20615;-55
2021/10/12 03:54:06;;;;;;;11.67;8.10;;;9.80;92.60;;;;;;5101425;28;20496;-56
2021/10/12 03:56:31;;;;;;;14.73;8.50;;;9.80;90.10;;;;;;5102277;28;20461;-55
2021/10/12 03:58:57;;;;;;;13.40;8.10;;;9.70;91.30;;;;;;5103878;28;20193;-55
2021/10/12 04:01:22;;;;;;;17.53;9.83;;;9.70;90.80;;;;;;5092488;28;20193;-56
2021/10/12 04:03:48;;;;;;;13.20;8.50;;;9.60;93.20;;;;;;5097505;28;20502;-54
2021/10/12 04:06:15;;;;;;;15.20;8.17;;;9.70;93.90;;;;;;5096769;28;20281;-55
2021/10/12 04:08:41;;;;;;;12.77;9.33;;;9.70;93.30;;;;;;5097362;28;20437;-55
2021/10/12 04:11:07;;;;;;;20.70;11.90;;;9.90;89.70;;;;;;5102015;28;20501;-55
2021/10/12 04:13:32;;;;;;;12.33;9.60;;;9.90;80.90;;;;;;5097804;28;20437;-57
2021/10/12 04:15:58;;;;;;;20.30;9.53;;;9.90;78.10;;;;;;5092968;28;20180;-54
2021/10/12 04:18:23;;;;;;;14.53;9.37;;;9.90;74.50;;;;;;5101358;28;20657;-56
2021/10/12 04:20:49;;;;;;;27.77;9.17;;;9.90;67.40;;;;;;5102457;28;20225;-54
2021/10/12 04:23:14;;;;;;;12.80;9.60;;;9.90;64.80;;;;;;5099250;28;20618;-56
2021/10/12 04:25:42;;;;;;;14.50;9.57;;;9.90;75.20;;;;;;5099726;28;20598;-56
2021/10/12 04:28:12;;;;;;;15.83;9.70;;;9.80;79.70;;;;;;5095389;28;20248;-56
2021/10/12 04:30:42;;;;;;;13.97;9.80;;;9.80;83.50;;;;;;5098997;28;20844;-55
2021/10/12 04:33:08;;;;;;;18.57;10.07;;;9.90;82.90;;;;;;5105732;28;20503;-55
2021/10/12 04:35:34;;;;;;;12.77;9.83;;;9.80;77.70;;;;;;5084640;28;20446;-54
2021/10/12 04:38:01;;;;;;;14.30;10.60;;;9.80;74.80;;;;;;5103834;28;20253;-56
2021/10/12 04:40:29;;;;;;;14.37;10.47;;;9.90;71.40;;;;;;5107338;28;20436;-54
2021/10/12 04:42:55;;;;;;;19.50;12.07;;;9.80;71.30;;;;;;5104234;28;20909;-56
2021/10/12 04:45:21;;;;;;;16.10;10.40;;;9.90;61.70;;;;;;5097070;28;20483;-55
2021/10/12 04:47:46;;;;;;;21.43;10.17;;;9.90;55.60;;;;;;5103685;28;20448;-57
2021/10/12 04:50:12;;;;;;;19.40;10.90;;;9.70;60.00;;;;;;5096090;28;20191;-56
2021/10/12 04:52:37;;;;;;;13.50;10.80;;;9.60;70.20;;;;;;5104609;28;20635;-55
2021/10/12 04:55:03;;;;;;;17.50;11.77;;;9.60;81.70;;;;;;5097348;28;20195;-54
2021/10/12 04:57:29;;;;;;;18.73;10.60;;;9.60;80.60;;;;;;5101402;28;20281;-57
2021/10/12 04:59:54;;;;;;;17.90;11.43;;;9.70;72.90;;;;;;5101269;28;20551;-55
2021/10/12 05:02:20;;;;;;;18.17;12.53;;;9.60;81.00;;;;;;5106387;28;20186;-55
2021/10/12 05:04:46;;;;;;;18.07;11.37;;;9.50;79.70;;;;;;5098309;28;20214;-55
2021/10/12 05:07:12;;;;;;;13.63;10.53;;;9.60;77.20;;;;;;5100247;28;20580;-54
2021/10/12 05:09:38;;;;;;;18.87;11.30;;;9.40;80.40;;;;;;5096171;28;20447;-57
2021/10/12 05:12:03;;;;;;;15.90;11.37;;;9.40;92.90;;;;;;5098783;28;20636;-56
2021/10/12 05:14:29;;;;;;;17.10;10.70;;;9.50;93.30;;;;;;5083927;28;20524;-56
2021/10/12 05:16:56;;;;;;;16.03;12.77;;;9.50;93.20;;;;;;5095480;28;20446;-53
2021/10/12 05:19:21;;;;;;;19.83;11.57;;;9.70;87.20;;;;;;5106804;28;20530;-54
2021/10/12 05:21:49;;;;;;;21.87;11.57;;;9.70;79.80;;;;;;5102673;28;20597;-55
2021/10/12 05:24:14;;;;;;;16.53;10.63;;;9.80;68.20;;;;;;5093561;28;20379;-54
2021/10/12 05:26:41;;;;;;;19.10;12.00;;;9.80;63.10;;;;;;5095070;28;20779;-57
2021/10/12 05:29:10;;;;;;;15.00;11.10;;;9.70;63.70;;;;;;5099786;28;20233;-55
2021/10/12 05:31:35;;;;;;;15.13;10.60;;;9.90;61.50;;;;;;5106320;28;20945;-54
2021/10/12 05:34:01;;;;;;;12.60;9.50;;;9.90;57.80;;;;;;5106205;28;20456;-55
2021/10/12 05:36:26;;;;;;;21.70;12.67;;;10.00;51.60;;;;;;5103938;28;20601;-55
2021/10/12 05:38:52;;;;;;;20.33;10.93;;;10.20;38.30;;;;;;5097818;28;20187;-55
2021/10/12 05:41:17;;;;;;;14.53;10.87;;;10.20;28.60;;;;;;5103843;28;20203;-55
2021/10/12 05:43:43;;;;;;;14.00;10.00;;;10.20;27.40;;;;;;5098532;28;20613;-55
2021/10/12 05:46:08;;;;;;;19.20;10.30;;;10.10;29.70;;;;;;5103699;28;20667;-56
2021/10/12 05:48:34;;;;;;;14.07;10.47;;;10.10;35.60;;;;;;5102169;28;20675;-54
2021/10/12 05:51:00;;;;;;;21.47;11.20;;;10.10;37.00;;;;;;5104230;28;20240;-55
2021/10/12 05:53:27;;;;;;;14.07;10.00;;;10.10;33.90;;;;;;5102180;28;20659;-54
2021/10/12 05:56:45;;;;;;;14.20;11.50;;;10.10;30.60;;;;;;5092025;28;20604;-55
2021/10/12 05:58:43;;;;;;;13.50;11.40;;;10.00;29.80;;;;;;5102842;28;20832;-57
2021/10/12 06:01:10;;;;;;;20.80;12.17;;;9.90;38.90;;;;;;5106129;28;20534;-54
2021/10/12 06:03:36;;;;;;;22.50;15.60;;;9.80;44.50;;;;;;5097584;28;20500;-55
2021/10/12 06:06:02;;;;;;;16.03;13.00;;;9.90;41.30;;;;;;5108423;28;20471;-55
2021/10/12 06:08:30;;;;;;;14.83;9.77;;;9.80;49.60;;;;;;5110049;28;20209;-55
2021/10/12 06:10:57;;;;;;;17.07;11.10;;;10.00;48.40;;;;;;5108343;28;20422;-55
2021/10/12 06:13:23;;;;;;;24.10;11.43;;;10.00;44.90;;;;;;5106656;28;20468;-58
2021/10/12 06:15:49;;;;;;;18.73;11.23;;;10.00;42.40;;;;;;5078359;28;20441;-56
2021/10/12 06:18:14;;;;;;;17.63;12.20;;;9.90;46.10;;;;;;5105543;28;20825;-55
2021/10/12 06:20:40;;;;;;;17.07;11.47;;;10.10;42.60;;;;;;5097487;28;20476;-57
2021/10/12 06:23:08;;;;;;;16.60;10.57;;;10.10;35.40;;;;;;5099777;28;20247;-56
2021/10/12 06:25:34;;;;;;;14.80;9.50;;;10.30;36.00;;;;;;5102515;28;20948;-56
2021/10/12 06:28:00;;;;;;;17.03;9.70;;;10.60;34.50;;;;;;5106476;28;20436;-56
2021/10/12 06:30:25;;;;;;;11.23;8.93;;;11.00;1.00;;;;;;5108206;28;20167;-54
2021/10/12 06:32:51;;;;;;;10.73;7.77;;;11.10;1.00;;;;;;5107021;28;20183;-55
2021/10/12 06:35:16;;;;;;;12.77;7.60;;;11.30;1.00;;;;;;5105373;28;20179;-54
2021/10/12 06:37:42;;;;;;;12.87;7.97;;;11.40;1.00;;;;;;5098086;28;20214;-55
2021/10/12 06:40:08;;;;;;;8.60;6.97;;;11.40;1.00;;;;;;5104263;28;20194;-55
2021/10/12 06:42:33;;;;;;;8.43;7.50;;;11.60;1.00;;;;;;5102525;28;20183;-55
2021/10/12 06:45:01;;;;;;;10.93;6.90;;;11.70;1.00;;;;;;5104878;28;20479;-56
2021/10/12 06:47:26;;;;;;;9.83;6.77;;;11.70;1.00;;;;;;5089134;28;20252;-56
2021/10/12 06:49:52;;;;;;;10.53;6.17;;;11.70;1.00;;;;;;5094138;28;20468;-55
2021/10/12 06:52:17;;;;;;;11.73;6.10;;;11.80;1.00;;;;;;5097478;28;20208;-56
2021/10/12 06:54:44;;;;;;;8.87;6.30;;;11.70;1.00;;;;;;5107440;28;20218;-55
2021/10/12 06:57:11;;;;;;;8.33;5.53;;;11.70;1.00;;;;;;5105999;28;20183;-55
2021/10/12 06:59:37;;;;;;;12.50;6.23;;;11.60;1.00;;;;;;5106434;28;20531;-57
2021/10/12 07:02:03;;;;;;;8.80;6.30;;;11.70;1.00;;;;;;5107327;28;20531;-54
2021/10/12 07:04:28;;;;;;;10.93;6.40;;;11.80;1.00;;;;;;5099229;28;20226;-54
2021/10/12 07:06:54;;;;;;;7.37;5.83;;;11.80;1.00;;;;;;5095550;28;20179;-56
2021/10/12 07:09:19;;;;;;;8.93;5.67;;;11.80;1.00;;;;;;5082264;28;20179;-55
2021/10/12 07:11:45;;;;;;;11.70;5.17;;;12.00;1.00;;;;;;5101991;28;20512;-57
2021/10/12 07:14:12;;;;;;;6.33;4.70;;;12.30;1.00;;;;;;5098629;28;20186;-56
2021/10/12 07:16:38;;;;;;;7.17;5.33;;;12.30;1.00;;;;;;5112306;28;20443;-55
2021/10/12 07:19:07;;;;;;;7.07;4.83;;;12.40;1.00;;;;;;5109708;28;20793;-55
2021/10/12 07:21:33;;;;;;;7.90;4.73;;;12.40;1.00;;;;;;5108091;28;20429;-54
2021/10/12 07:23:59;;;;;;;11.23;5.37;;;12.30;1.00;;;;;;5095840;28;20480;-55
2021/10/12 07:26:25;;;;;;;8.50;4.60;;;12.40;1.00;;;;;;5106111;28;20822;-55
2021/10/12 07:28:50;;;;;;;6.90;4.70;;;12.40;1.00;;;;;;5095931;28;20187;-55
2021/10/12 07:31:16;;;;;;;7.30;4.60;;;12.60;1.00;;;;;;5107132;28;20256;-55
2021/10/12 07:33:42;;;;;;;9.33;4.77;;;12.70;1.00;;;;;;5091568;28;20180;-54
2021/10/12 07:36:08;;;;;;;7.80;4.07;;;12.80;1.00;;;;;;5095005;28;20194;-57
2021/10/12 07:38:34;;;;;;;5.00;3.90;;;12.70;1.00;;;;;;5092151;28;20194;-55
2021/10/12 07:40:59;;;;;;;5.40;3.87;;;12.80;1.00;;;;;;5091864;28;20183;-55
2021/10/12 07:43:25;;;;;;;7.13;4.00;;;12.90;1.00;;;;;;5084704;28;20448;-54
2021/10/12 07:45:51;;;;;;;9.30;3.63;;;12.80;1.00;;;;;;5110631;28;20202;-55
2021/10/12 07:48:17;;;;;;;10.60;5.17;;;12.70;1.00;;;;;;5093494;28;20231;-55
2021/10/12 07:50:43;;;;;;;4.30;3.47;;;12.60;1.00;;;;;;5093392;28;20216;-55
2021/10/12 07:53:10;;;;;;;3.63;3.23;;;12.60;1.00;;;;;;5092823;28;20679;-55
2021/10/12 07:55:40;;;;;;;6.63;3.50;;;12.70;1.00;;;;;;5094710;28;20769;-55
2021/10/12 07:58:05;;;;;;;6.07;3.00;;;12.80;1.00;;;;;;5094442;28;20432;-55
2021/10/12 08:00:32;;;;;;;4.20;3.13;;;12.90;1.00;;;;;;5093000;28;20457;-54
2021/10/12 08:02:59;;;;;;;9.90;3.00;;;12.90;1.00;;;;;;5092974;28;20210;-55
2021/10/12 08:05:26;;;;;;;4.47;3.10;;;12.80;1.00;;;;;;5092461;28;20440;-55
2021/10/12 08:07:53;;;;;;;5.80;2.80;;;12.80;1.00;;;;;;5093192;28;20595;-55
2021/10/12 08:10:19;;;;;;;3.80;2.50;;;12.80;1.00;;;;;;5105382;28;20938;-55
2021/10/12 08:12:46;;;;;;;5.97;2.90;;;12.80;1.00;;;;;;5093302;28;20441;-56
2021/10/12 08:15:12;;;;;;;5.47;2.77;;;12.80;1.00;;;;;;5093418;28;20433;-55
2021/10/12 08:17:38;;;;;;;3.53;2.57;;;13.10;1.00;;;;;;5090562;28;20449;-56
2021/10/12 08:20:06;;;;;;;4.13;2.43;;;13.00;1.00;;;;;;5093263;28;20447;-55
2021/10/12 08:22:32;;;;;;;4.10;3.07;;;12.90;1.00;;;;;;5096326;28;20972;-56
2021/10/12 08:24:57;;;;;;;8.70;2.77;;;12.90;1.00;;;;;;5096039;28;20546;-55
2021/10/12 08:27:23;;;;;;;14.33;3.70;;;12.90;1.00;;;;;;5100119;28;20237;-54
2021/10/12 08:29:48;;;;;;;4.00;2.90;;;12.90;1.00;;;;;;5106938;28;20186;-56
2021/10/12 08:32:14;;;;;;;4.77;3.80;;;12.70;1.00;;;;;;5107887;28;20190;-55
2021/10/12 08:34:40;;;;;;;4.30;3.10;;;12.60;1.00;;;;;;5091391;28;20188;-56
2021/10/12 08:37:06;;;;;;;4.50;2.50;;;12.70;1.00;;;;;;5093091;28;20525;-55
2021/10/12 08:39:33;;;;;;;5.10;2.57;;;12.70;1.00;;;;;;5102631;28;20482;-56
2021/10/12 08:42:16;;;;;;;2.53;2.20;;;12.90;1.00;;;;;;5101813;28;20268;-55
2021/10/12 08:45:16;;;;;;;3.27;2.73;;;12.90;1.00;;;;;;5109910;28;20472;-54
2021/10/12 08:47:43;;;;;;;4.20;3.13;;;12.90;1.00;;;;;;5039916;28;20442;-55
2021/10/12 08:50:15;;;;;;;4.23;2.60;;;12.80;1.00;;;;;;5109333;28;20436;-55
2021/10/12 08:52:44;;;;;;;6.97;3.20;;;12.50;1.00;;;;;;5103083;28;20948;-56
2021/10/12 08:55:09;;;;;;;4.40;3.03;;;12.50;1.00;;;;;;5107442;28;20441;-55
2021/10/12 08:57:36;;;;;;;3.80;2.80;;;12.50;1.00;;;;;;5090904;28;20445;-55
2021/10/12 09:00:20;;;;;;;3.33;2.83;;;12.60;1.00;;;;;;5098367;28;20183;-56
2021/10/12 09:05:59;;;;;;;4.40;2.70;;;12.50;1.00;;;;;;5105789;28;20766;-56
2021/10/12 09:08:30;;;;;;;4.83;2.10;;;12.30;1.00;;;;;;5096670;28;20444;-56
2021/10/12 09:10:57;;;;;;;4.70;2.13;;;12.20;1.00;;;;;;5105396;28;20486;-54
2021/10/12 09:13:24;;;;;;;3.73;2.30;;;12.40;1.00;;;;;;5078625;28;20444;-55
2021/10/12 09:16:04;;;;;;;6.13;2.73;;;12.50;1.00;;;;;;5105900;28;20445;-55
2021/10/12 09:18:57;;;;;;;7.80;2.40;;;12.40;1.00;;;;;;5107327;28;20806;-56
2021/10/12 09:21:25;;;;;;;4.80;2.70;;;12.40;1.00;;;;;;5104443;28;20444;-55
2021/10/12 09:24:01;;;;;;;3.27;2.60;;;12.60;1.00;;;;;;5105426;28;20441;-56
2021/10/12 09:26:32;;;;;;;3.13;2.47;;;12.80;1.00;;;;;;5087797;28;20463;-56
2021/10/12 09:29:06;;;;;;;4.53;3.00;;;13.00;1.00;;;;;;5113383;28;20437;-56
2021/10/12 09:31:37;;;;;;;4.57;2.70;;;13.10;1.00;;;;;;5103022;28;20464;-55
2021/10/12 09:34:05;;;;;;;4.40;2.63;;;13.10;1.00;;;;;;5098418;28;20445;-56
2021/10/12 09:36:59;;;;;;;6.07;3.03;;;13.10;1.00;;;;;;5095936;28;20473;-56
2021/10/12 09:39:34;;;;;;;7.17;2.50;;;12.90;1.00;;;;;;5077430;28;20444;-56
2021/10/12 09:42:06;;;;;;;3.77;3.00;;;12.70;1.00;;;;;;5111486;28;20600;-56
2021/10/12 09:44:32;;;;;;;5.33;3.37;;;12.50;1.00;;;;;;5108546;28;20470;-55
2021/10/12 09:47:18;;;;;;;5.87;3.40;;;12.40;1.00;;;;;;5096503;28;20772;-54
2021/10/12 09:49:45;;;;;;;6.13;3.30;;;12.50;1.00;;;;;;5093617;28;20506;-55
2021/10/12 09:52:13;;;;;;;4.47;4.00;;;12.50;1.00;;;;;;5088819;28;20448;-54
2021/10/12 09:54:49;;;;;;;6.43;4.03;;;12.40;1.00;;;;;;5102720;28;20445;-55
2021/10/12 09:57:16;;;;;;;11.93;4.03;;;12.30;1.00;;;;;;5099785;28;20441;-54
2021/10/12 09:59:42;;;;;;;4.33;4.00;;;12.40;1.00;;;;;;5095080;28;20950;-55
2021/10/12 10:02:14;;;;;;;7.43;4.10;;;12.30;1.00;;;;;;5110425;28;20458;-55
2021/10/12 10:04:40;;;;;;;4.13;3.60;;;12.20;1.00;;;;;;5100088;28;20467;-55
2021/10/12 10:07:09;;;;;;;4.07;3.67;;;12.10;1.00;;;;;;5107160;28;20444;-55
2021/10/12 10:09:36;;;;;;;4.27;3.50;;;12.10;1.00;;;;;;5099113;28;20639;-57
2021/10/12 10:12:06;;;;;;;4.70;3.93;;;11.90;1.00;;;;;;5095489;28;20433;-55
2021/10/12 10:14:33;;;;;;;5.83;5.30;;;11.90;1.00;;;;;;5095643;28;20469;-54
2021/10/12 10:17:00;;;;;;;3.63;3.20;;;11.80;1.00;;;;;;5107016;28;20958;-55
2021/10/12 10:19:32;;;;;;;7.23;3.47;;;11.90;1.00;;;;;;5093299;28;20535;-52
2021/10/12 10:21:58;;;;;;;5.90;4.17;;;12.00;1.00;;;;;;5100154;28;20466;-54
2021/10/12 10:24:43;;;;;;;4.80;3.30;;;12.00;1.00;;;;;;5110560;28;20942;-55
2021/10/12 10:27:36;;;;;;;3.43;2.83;;;12.00;1.00;;;;;;5099817;28;20210;-53
2021/10/12 10:30:25;;;;;;;6.27;2.90;;;12.10;1.00;;;;;;5107064;28;20410;-52
2021/10/12 10:32:56;;;;;;;6.43;3.27;;;12.20;1.00;;;;;;5093067;28;20433;-54
2021/10/12 10:35:40;;;;;;;6.13;2.80;;;12.20;1.00;;;;;;5092775;28;20473;-55
2021/10/12 10:38:31;;;;;;;5.60;3.90;;;12.40;1.00;;;;;;5111429;28;20446;-55
2021/10/12 10:41:03;;;;;;;2.73;2.40;;;12.40;1.00;;;;;;5104190;28;20786;-55
2021/10/12 10:43:51;;;;;;;3.73;2.70;;;12.50;1.00;;;;;;5103273;28;20532;-56
2021/10/12 10:46:32;;;;;;;2.37;2.17;;;12.40;1.00;;;;;;5094778;28;20820;-56
2021/10/12 10:49:13;;;;;;;2.80;2.30;;;12.50;1.00;;;;;;5098495;28;20489;-56
2021/10/12 10:52:07;;;;;;;2.67;2.33;;;12.80;1.00;;;;;;5104086;28;20445;-56
2021/10/12 10:54:39;;;;;;;5.50;2.50;;;12.80;1.00;;;;;;5082286;28;20453;-56
2021/10/12 10:57:19;;;;;;;5.70;2.53;;;12.90;1.00;;;;;;5099038;28;20772;-56
2021/10/12 10:59:45;;;;;;;4.03;1.80;;;12.80;1.00;;;;;;5105379;28;20518;-56
2021/10/12 11:02:25;;;;;;;1.97;1.53;;;13.00;1.00;;;;;;5094759;28;20547;-56
2021/10/12 11:04:51;;;;;;;2.77;1.50;;;12.90;1.00;;;;;;5085447;28;20469;-57
2021/10/12 11:07:21;;;;;;;2.10;1.83;;;13.10;1.00;;;;;;5098319;28;20445;-57
2021/10/12 11:09:47;;;;;;;3.30;1.33;;;13.20;1.00;;;;;;5097635;28;20597;-57
2021/10/12 11:12:21;;;;;;;2.80;1.70;;;13.00;1.00;;;;;;5079164;28;20445;-57
2021/10/12 11:14:48;;;;;;;2.10;1.30;;;13.00;1.00;;;;;;5080209;28;20470;-58
2021/10/12 11:17:13;;;;;;;1.70;1.40;;;13.00;1.00;;;;;;5103720;28;20430;-57
2021/10/12 11:20:02;;;;;;;1.33;0.80;;;13.00;1.00;;;;;;5096475;28;20445;-57
2021/10/12 11:22:29;;;;;;;1.17;1.07;;;13.00;1.00;;;;;;5100102;28;20186;-57
2021/10/12 11:24:56;;;;;;;1.90;1.07;;;12.80;1.00;;;;;;5101188;28;20461;-57
2021/10/12 11:27:21;;;;;;;5.63;1.47;;;12.80;1.00;;;;;;5103020;28;20441;-57
2021/10/12 11:30:05;;;;;;;1.07;1.00;;;12.80;1.00;;;;;;5104572;28;20445;-57
2021/10/12 11:32:30;;;;;;;1.97;1.27;;;12.60;1.00;;;;;;5105249;28;20202;-56
2021/10/12 11:35:11;;;;;;;2.77;1.27;;;12.40;1.00;;;;;;5100352;28;20483;-57
2021/10/12 11:37:56;;;;;;;1.47;1.33;;;12.20;1.00;;;;;;5100068;28;20678;-56
2021/10/12 11:40:25;;;;;;;2.17;1.57;;;12.10;1.00;;;;;;5098353;28;22113;-56
2021/10/12 11:42:54;;;;;;;2.17;1.70;;;12.20;1.00;;;;;;5100912;28;20542;-56
2021/10/12 11:45:20;;;;;;;5.97;1.47;;;12.10;1.00;;;;;;5098662;28;20475;-56
2021/10/12 11:47:46;;;;;;;2.43;1.63;;;12.10;1.00;;;;;;5097135;28;20449;-57
2021/10/12 11:50:13;;;;;;;1.87;1.70;;;12.30;1.00;;;;;;5099692;28;20534;-56
2021/10/12 11:52:40;;;;;;;3.80;1.70;;;12.40;1.00;;;;;;5100549;28;20724;-56
2021/10/12 11:55:09;;;;;;;5.10;2.67;;;12.40;1.00;;;;;;5094938;28;20452;-56
2021/10/12 11:57:35;;;;;;;3.70;2.33;;;12.60;1.00;;;;;;5100467;28;20823;-57
2021/10/12 12:00:00;;;;;;;2.50;1.80;;;12.90;1.00;;;;;;5097669;28;20449;-57
2021/10/12 12:02:29;;;;;;;4.30;2.00;;;13.00;1.00;;;;;;5092907;28;20453;-57
2021/10/12 12:04:58;;;;;;;3.33;1.70;;;13.10;1.00;;;;;;5102012;28;20235;-56
2021/10/12 12:07:27;;;;;;;2.20;1.50;;;13.10;1.00;;;;;;5094513;28;20453;-57
2021/10/12 12:09:53;;;;;;;2.13;1.70;;;13.10;1.00;;;;;;5100088;28;20436;-56
2021/10/12 12:12:19;;;;;;;2.07;1.73;;;13.10;1.00;;;;;;5098871;28;20480;-56
2021/10/12 12:14:49;;;;;;;2.90;2.00;;;13.10;1.00;;;;;;5098390;28;20407;-57
2021/10/12 12:17:20;;;;;;;1.70;1.60;;;13.00;1.00;;;;;;5100201;28;20922;-56
2021/10/12 12:19:49;;;;;;;3.30;1.60;;;13.00;1.00;;;;;;5091399;28;20678;-56
2021/10/12 12:22:22;;;;;;;3.30;1.70;;;12.80;1.00;;;;;;5102276;28;20443;-56
2021/10/12 12:24:58;;;;;;;2.43;1.40;;;12.70;1.00;;;;;;5109407;28;20933;-56
2021/10/12 12:27:26;;;;;;;1.40;1.30;;;12.70;1.00;;;;;;5092130;28;20436;-56
2021/10/12 12:30:09;;;;;;;1.87;1.40;;;12.80;1.00;;;;;;5098828;28;20444;-56
2021/10/12 12:32:38;;;;;;;2.53;2.33;;;12.80;1.00;;;;;;5101931;28;20748;-56
2021/10/12 12:35:06;;;;;;;2.23;1.70;;;12.90;1.00;;;;;;5107634;28;20440;-55
2021/10/12 12:37:32;;;;;;;1.53;1.30;;;12.90;1.00;;;;;;5090618;28;20551;-56
2021/10/12 12:39:58;;;;;;;2.10;1.90;;;12.80;1.00;;;;;;5104784;28;20502;-56
2021/10/12 12:42:33;;;;;;;1.60;1.50;;;12.70;1.00;;;;;;5090328;28;20187;-57
2021/10/12 12:45:30;;;;;;;2.30;1.80;;;12.70;1.00;;;;;;5092078;28;20496;-56
2021/10/12 12:48:02;;;;;;;1.60;1.50;;;12.70;1.00;;;;;;5041573;28;20799;-56
2021/10/12 12:50:30;;;;;;;2.93;1.70;;;12.90;1.00;;;;;;5096608;28;20440;-56
2021/10/12 12:53:01;;;;;;;2.00;1.80;;;12.70;1.00;;;;;;5109778;28;20432;-56
2021/10/12 12:55:34;;;;;;;3.40;1.90;;;12.60;1.00;;;;;;5079395;28;20861;-55